Time;durP1;ratioP1;P1;durP2;ratioP2;P2;SDS_P1;SDS_P2;PMS_P1;PMS_P2;Temp;Humidity;BMP_temperature;BMP_pressure;BME280_temperature;BME280_humidity;BME280_pressure;Samples;Min_cycle;Max_cycle;Signal;HPM_P1;HPM_P2
2023/06/26 00:00:20;;;;;;;8.57;6.90;;;21.60;80.00;;;;;;4823349;29;88336;-81
2023/06/26 00:02:45;;;;;;;8.13;6.03;;;21.60;80.10;;;;;;4824044;29;88203;-83
2023/06/26 00:05:11;;;;;;;9.13;6.50;;;21.70;79.80;;;;;;4822092;29;90952;-83
2023/06/26 00:07:37;;;;;;;10.75;6.80;;;21.60;79.90;;;;;;4823608;29;87490;-83
2023/06/26 00:10:03;;;;;;;9.52;5.82;;;21.60;79.90;;;;;;4823959;29;91190;-83
2023/06/26 00:12:30;;;;;;;9.02;6.45;;;21.60;79.60;;;;;;4823621;29;89329;-83
2023/06/26 00:14:55;;;;;;;9.23;6.28;;;21.60;79.80;;;;;;4808190;29;91886;-84
2023/06/26 00:17:21;;;;;;;7.95;5.82;;;21.60;79.30;;;;;;4806972;29;87922;-83
2023/06/26 00:19:48;;;;;;;7.65;6.20;;;21.60;79.20;;;;;;4807480;29;90277;-83
2023/06/26 00:22:13;;;;;;;9.75;5.93;;;21.70;79.30;;;;;;4822502;29;91394;-82
2023/06/26 00:24:39;;;;;;;6.57;5.72;;;21.70;79.40;;;;;;4821189;29;91109;-82
2023/06/26 00:27:05;;;;;;;7.20;5.45;;;21.60;79.10;;;;;;4823185;29;87339;-83
2023/06/26 00:29:30;;;;;;;7.10;5.50;;;21.70;79.30;;;;;;4822308;29;88922;-83
2023/06/26 00:31:56;;;;;;;8.70;5.70;;;21.70;79.40;;;;;;4821794;29;91264;-83
2023/06/26 00:34:21;;;;;;;10.27;5.60;;;21.70;79.30;;;;;;4806545;29;91227;-83
2023/06/26 00:36:47;;;;;;;8.85;6.07;;;21.60;79.20;;;;;;4805238;29;96355;-83
2023/06/26 00:39:13;;;;;;;6.78;5.72;;;21.70;79.40;;;;;;4821909;29;89376;-83
2023/06/26 00:41:39;;;;;;;7.88;5.68;;;21.60;79.30;;;;;;4822535;29;90995;-82
2023/06/26 00:44:05;;;;;;;6.55;5.47;;;21.60;79.30;;;;;;4821825;29;91389;-83
2023/06/26 00:46:31;;;;;;;7.57;5.72;;;21.60;79.30;;;;;;4822707;29;87885;-83
2023/06/26 00:49:00;;;;;;;7.97;5.53;;;21.70;79.40;;;;;;4806300;29;89566;-82
2023/06/26 00:51:29;;;;;;;6.72;5.80;;;21.60;79.50;;;;;;4806636;29;92050;-83
2023/06/26 00:53:55;;;;;;;8.75;6.07;;;21.60;79.70;;;;;;4822914;29;91440;-83
2023/06/26 00:56:21;;;;;;;7.95;5.90;;;21.60;79.60;;;;;;4806595;29;87503;-84
2023/06/26 00:58:47;;;;;;;8.57;6.28;;;21.60;80.10;;;;;;4805538;29;91635;-83
2023/06/26 01:01:17;;;;;;;7.43;5.97;;;21.50;79.90;;;;;;4821504;29;90946;-84
2023/06/26 01:03:52;;;;;;;8.02;5.85;;;21.50;79.80;;;;;;4821460;29;91756;-83
2023/06/26 01:06:21;;;;;;;8.60;6.13;;;21.50;79.80;;;;;;4822532;29;87702;-83
2023/06/26 01:08:48;;;;;;;6.60;5.35;;;21.50;80.00;;;;;;4806180;29;90280;-83
2023/06/26 01:11:14;;;;;;;8.55;6.13;;;21.40;80.20;;;;;;4805918;29;90021;-81
2023/06/26 01:13:42;;;;;;;7.72;6.35;;;21.40;80.50;;;;;;4822902;29;90402;-83
2023/06/26 01:16:09;;;;;;;9.73;6.07;;;21.40;80.70;;;;;;4825228;29;91218;-83
2023/06/26 01:18:37;;;;;;;8.20;5.82;;;21.40;81.20;;;;;;4809075;29;90323;-82
2023/06/26 01:21:04;;;;;;;8.00;6.05;;;21.40;80.60;;;;;;4825353;29;91588;-83
2023/06/26 01:23:37;;;;;;;7.65;6.15;;;21.30;80.80;;;;;;4808207;29;90203;-83
2023/06/26 01:26:19;;;;;;;9.70;6.17;;;21.30;81.00;;;;;;4823939;29;88527;-83
2023/06/26 01:28:46;;;;;;;10.07;5.90;;;21.20;81.60;;;;;;4808851;29;89976;-84
2023/06/26 01:31:13;;;;;;;8.70;6.00;;;21.20;81.90;;;;;;4824755;29;88470;-81
2023/06/26 01:33:40;;;;;;;24.30;6.07;;;21.20;82.20;;;;;;4808850;29;89967;-83
2023/06/26 01:36:07;;;;;;;12.60;5.78;;;21.10;82.30;;;;;;4810467;29;87920;-83
2023/06/26 01:38:33;;;;;;;8.43;5.88;;;21.10;82.40;;;;;;4809584;29;89162;-83
2023/06/26 01:40:59;;;;;;;6.68;5.70;;;21.00;82.60;;;;;;4825714;29;88706;-83
2023/06/26 01:43:31;;;;;;;8.20;6.07;;;21.00;82.70;;;;;;4822406;29;91692;-83
2023/06/26 01:46:11;;;;;;;8.85;5.80;;;21.00;82.90;;;;;;4822154;29;87590;-83
2023/06/26 01:49:03;;;;;;;10.48;6.10;;;21.00;82.70;;;;;;4821712;29;90266;-83
2023/06/26 01:51:38;;;;;;;8.75;6.00;;;21.00;83.10;;;;;;4787860;29;93951;-83
2023/06/26 01:54:08;;;;;;;12.82;6.38;;;21.00;83.10;;;;;;4821586;29;91244;-84
2023/06/26 01:56:34;;;;;;;11.30;6.05;;;20.90;83.30;;;;;;4807146;29;87870;-84
2023/06/26 01:59:01;;;;;;;10.15;5.63;;;20.90;82.90;;;;;;4806243;29;89177;-84
2023/06/26 02:01:27;;;;;;;8.45;6.00;;;20.90;83.30;;;;;;4821756;29;90156;-82
2023/06/26 02:03:53;;;;;;;9.65;4.95;;;20.80;82.50;;;;;;4821954;29;91535;-84
2023/06/26 02:06:18;;;;;;;6.40;4.95;;;20.80;81.80;;;;;;4806610;29;87574;-83
2023/06/26 02:08:44;;;;;;;7.78;4.97;;;20.70;81.10;;;;;;4823027;29;90303;-84
2023/06/26 02:11:09;;;;;;;6.88;4.10;;;20.70;80.20;;;;;;4807480;29;90219;-83
2023/06/26 02:13:35;;;;;;;10.95;4.38;;;20.70;80.30;;;;;;4824251;29;91431;-84
2023/06/26 02:16:00;;;;;;;6.32;4.32;;;20.70;80.10;;;;;;4822784;29;88417;-84
2023/06/26 02:18:26;;;;;;;8.00;4.80;;;20.70;80.40;;;;;;4823327;29;90386;-83
2023/06/26 02:20:51;;;;;;;8.55;4.35;;;20.60;79.50;;;;;;4808778;29;91587;-83
2023/06/26 02:23:17;;;;;;;9.07;4.65;;;20.60;79.60;;;;;;4807972;29;90076;-83
2023/06/26 02:25:43;;;;;;;13.98;5.05;;;20.60;79.30;;;;;;4808270;29;87815;-83
2023/06/26 02:28:08;;;;;;;7.18;4.13;;;20.60;78.80;;;;;;4823638;29;90347;-84
2023/06/26 02:30:34;;;;;;;7.88;4.18;;;20.50;77.90;;;;;;4823475;29;91873;-83
2023/06/26 02:32:59;;;;;;;6.63;4.15;;;20.50;78.50;;;;;;4824300;29;91351;-85
2023/06/26 02:35:25;;;;;;;7.82;4.20;;;20.40;78.90;;;;;;4823565;29;87253;-83
2023/06/26 02:37:50;;;;;;;8.38;3.72;;;20.40;78.70;;;;;;4823249;29;90196;-83
2023/06/26 02:40:16;;;;;;;6.85;3.78;;;20.30;78.70;;;;;;4823749;29;89284;-84
2023/06/26 02:42:42;;;;;;;9.00;3.78;;;20.30;78.70;;;;;;4825035;29;89246;-84
2023/06/26 02:45:08;;;;;;;8.90;3.92;;;20.30;78.50;;;;;;4825788;29;87872;-83
2023/06/26 02:47:34;;;;;;;7.38;4.28;;;20.30;78.50;;;;;;4808198;29;88999;-82
2023/06/26 02:49:59;;;;;;;7.25;4.40;;;20.20;78.80;;;;;;4823099;29;90296;-84
2023/06/26 02:52:25;;;;;;;8.32;3.80;;;20.20;78.40;;;;;;4807704;29;89700;-85
2023/06/26 02:54:51;;;;;;;8.48;4.03;;;20.20;78.60;;;;;;4823911;29;87682;-83
2023/06/26 02:57:17;;;;;;;8.30;4.43;;;20.10;78.80;;;;;;4808295;29;89000;-84
2023/06/26 02:59:42;;;;;;;11.45;3.90;;;20.20;78.80;;;;;;4824185;29;91396;-83
2023/06/26 03:02:08;;;;;;;9.48;4.53;;;20.10;78.50;;;;;;4823415;29;89942;-83
2023/06/26 03:04:36;;;;;;;5.82;3.58;;;20.10;79.00;;;;;;4822913;29;88338;-84
2023/06/26 03:07:03;;;;;;;9.63;3.85;;;20.10;79.50;;;;;;4807400;29;90503;-83
2023/06/26 03:09:28;;;;;;;6.72;3.50;;;20.00;79.30;;;;;;4822988;29;92761;-83
2023/06/26 03:11:55;;;;;;;9.65;4.10;;;20.00;79.70;;;;;;4825201;29;90847;-85
2023/06/26 03:14:21;;;;;;;7.47;3.95;;;20.00;80.20;;;;;;4824503;29;87405;-84
2023/06/26 03:16:47;;;;;;;8.43;3.55;;;19.90;79.70;;;;;;4823617;29;89611;-85
2023/06/26 03:19:13;;;;;;;6.43;3.97;;;19.90;80.00;;;;;;4824002;29;91540;-84
2023/06/26 03:21:38;;;;;;;6.95;3.63;;;19.90;80.60;;;;;;4824968;29;91394;-84
2023/06/26 03:24:05;;;;;;;6.15;3.28;;;19.80;80.30;;;;;;4823903;29;87532;-84
2023/06/26 03:26:30;;;;;;;4.85;3.40;;;19.80;80.80;;;;;;4807792;29;90468;-83
2023/06/26 03:28:56;;;;;;;10.43;4.10;;;19.80;81.00;;;;;;4822447;29;91913;-83
2023/06/26 03:31:21;;;;;;;8.20;3.33;;;19.70;81.50;;;;;;4823618;29;92114;-83
2023/06/26 03:33:47;;;;;;;6.63;3.80;;;19.60;81.90;;;;;;4823421;29;88416;-84
2023/06/26 03:36:13;;;;;;;7.35;3.55;;;19.60;82.10;;;;;;4822370;29;89291;-83
2023/06/26 03:38:38;;;;;;;5.18;3.30;;;19.60;82.60;;;;;;4808240;29;91759;-83
2023/06/26 03:41:04;;;;;;;8.55;3.97;;;19.60;83.00;;;;;;4822404;29;89997;-84
2023/06/26 03:43:30;;;;;;;5.82;4.00;;;19.50;83.50;;;;;;4807349;29;87745;-84
2023/06/26 03:45:55;;;;;;;5.40;3.75;;;19.40;83.90;;;;;;4823018;29;89052;-84
2023/06/26 03:48:21;;;;;;;8.23;3.63;;;19.40;84.40;;;;;;4821410;29;91696;-83
2023/06/26 03:50:47;;;;;;;7.90;4.28;;;19.40;84.70;;;;;;4822965;29;90085;-83
2023/06/26 03:53:12;;;;;;;9.05;3.70;;;19.30;85.10;;;;;;4823868;29;88490;-84
2023/06/26 03:55:38;;;;;;;6.88;3.92;;;19.30;85.80;;;;;;4823113;29;90362;-83
2023/06/26 03:58:04;;;;;;;8.52;3.70;;;19.20;86.00;;;;;;4822580;29;91749;-84
2023/06/26 04:00:30;;;;;;;9.40;3.95;;;19.20;86.20;;;;;;4823560;29;90830;-82
2023/06/26 04:02:56;;;;;;;7.15;4.10;;;19.10;86.70;;;;;;4824791;29;87880;-85
2023/06/26 04:05:21;;;;;;;7.18;3.70;;;19.10;86.80;;;;;;4807049;29;89000;-85
2023/06/26 04:07:50;;;;;;;11.68;4.32;;;19.10;86.80;;;;;;4806790;29;91304;-84
2023/06/26 04:10:16;;;;;;;7.50;3.35;;;19.00;87.10;;;;;;4822667;29;90233;-83
2023/06/26 04:12:42;;;;;;;7.18;4.20;;;19.00;86.80;;;;;;4806581;29;87877;-85
2023/06/26 04:15:08;;;;;;;8.63;4.00;;;19.00;87.10;;;;;;4824098;29;89343;-84
2023/06/26 04:17:34;;;;;;;7.15;3.50;;;19.00;87.40;;;;;;4825204;29;91116;-84
2023/06/26 04:19:59;;;;;;;14.27;4.43;;;19.00;87.50;;;;;;4823230;29;91404;-83
2023/06/26 04:22:25;;;;;;;8.55;4.03;;;19.00;87.90;;;;;;4822713;29;87888;-83
2023/06/26 04:24:51;;;;;;;10.95;3.88;;;19.00;88.20;;;;;;4822342;29;89097;-85
2023/06/26 04:27:18;;;;;;;7.57;3.80;;;18.90;88.60;;;;;;4821604;29;91282;-84
2023/06/26 04:29:43;;;;;;;10.38;4.40;;;18.90;88.50;;;;;;4823219;29;89976;-85
2023/06/26 04:32:09;;;;;;;8.40;4.03;;;18.90;89.00;;;;;;4822267;29;87670;-85
2023/06/26 04:34:36;;;;;;;10.35;4.00;;;18.90;89.40;;;;;;4823159;29;90551;-84
2023/06/26 04:37:04;;;;;;;8.20;3.65;;;18.90;89.60;;;;;;4822243;29;91506;-85
2023/06/26 04:39:30;;;;;;;7.75;3.90;;;18.90;89.90;;;;;;4821830;29;90187;-85
2023/06/26 04:41:56;;;;;;;11.15;4.38;;;19.00;89.70;;;;;;4823118;29;88562;-84
2023/06/26 04:44:21;;;;;;;13.68;4.55;;;19.00;89.90;;;;;;4822362;29;90160;-84
2023/06/26 04:46:47;;;;;;;7.93;4.30;;;19.00;90.10;;;;;;4822072;29;90923;-84
2023/06/26 04:49:13;;;;;;;11.20;3.90;;;19.00;90.10;;;;;;4824332;29;90896;-85
2023/06/26 04:51:40;;;;;;;14.35;4.28;;;19.10;90.00;;;;;;4825723;29;88067;-85
2023/06/26 04:54:12;;;;;;;10.43;4.20;;;19.00;90.00;;;;;;4826666;29;90517;-83
2023/06/26 04:56:39;;;;;;;9.23;4.07;;;19.10;90.00;;;;;;4825837;29;95900;-86
2023/06/26 04:59:05;;;;;;;10.55;4.05;;;19.10;90.00;;;;;;4825330;29;90307;-84
2023/06/26 05:01:32;;;;;;;9.30;3.70;;;19.10;90.10;;;;;;4824920;29;87765;-85
2023/06/26 05:04:00;;;;;;;10.40;4.40;;;19.10;90.10;;;;;;4824501;29;90222;-84
2023/06/26 05:06:26;;;;;;;15.25;4.80;;;19.10;90.10;;;;;;4808203;29;92207;-84
2023/06/26 05:08:51;;;;;;;10.10;4.20;;;19.10;90.30;;;;;;4825519;29;92301;-84
2023/06/26 05:11:17;;;;;;;10.80;4.15;;;19.10;90.40;;;;;;4825018;29;87426;-84
2023/06/26 05:13:43;;;;;;;9.55;3.90;;;19.10;90.50;;;;;;4824511;29;90415;-85
2023/06/26 05:16:09;;;;;;;10.27;4.05;;;19.10;90.50;;;;;;4824746;29;91288;-85
2023/06/26 05:18:36;;;;;;;11.65;4.32;;;19.10;90.50;;;;;;4823979;29;91073;-83
2023/06/26 05:21:02;;;;;;;9.77;4.30;;;19.10;90.40;;;;;;4826139;29;87759;-83
2023/06/26 05:23:31;;;;;;;11.02;4.75;;;19.20;90.50;;;;;;4809111;29;89298;-84
2023/06/26 05:25:57;;;;;;;8.88;4.20;;;19.20;90.50;;;;;;4809923;29;89821;-85
2023/06/26 05:28:24;;;;;;;13.85;5.30;;;19.20;90.30;;;;;;4810267;29;90839;-83
2023/06/26 05:30:51;;;;;;;16.77;5.32;;;19.20;90.20;;;;;;4825404;29;88323;-85
2023/06/26 05:33:18;;;;;;;12.35;4.47;;;19.30;90.50;;;;;;4808756;29;90242;-84
2023/06/26 05:35:45;;;;;;;13.10;4.65;;;19.20;90.30;;;;;;4825294;29;91911;-85
2023/06/26 05:38:13;;;;;;;11.98;4.68;;;19.30;90.30;;;;;;4808825;29;90180;-83
2023/06/26 05:40:40;;;;;;;10.68;4.15;;;19.40;90.50;;;;;;4811357;29;87598;-84
2023/06/26 05:43:06;;;;;;;9.27;4.88;;;19.50;90.50;;;;;;4824281;29;90734;-83
2023/06/26 05:45:32;;;;;;;11.95;4.63;;;19.50;90.10;;;;;;4824212;29;92403;-84
2023/06/26 05:47:58;;;;;;;12.63;4.95;;;19.60;90.20;;;;;;4825702;29;90241;-85
2023/06/26 05:50:24;;;;;;;14.13;4.68;;;19.60;89.60;;;;;;4825377;29;88339;-85
2023/06/26 05:52:50;;;;;;;8.82;3.92;;;19.60;89.50;;;;;;4810607;29;91593;-84
2023/06/26 05:55:16;;;;;;;12.55;4.57;;;19.70;89.10;;;;;;4824582;29;94206;-85
2023/06/26 05:57:43;;;;;;;12.93;4.00;;;19.80;88.90;;;;;;4824310;29;92084;-83
2023/06/26 06:00:11;;;;;;;15.90;3.92;;;19.80;87.70;;;;;;4808700;29;87442;-83
2023/06/26 06:02:38;;;;;;;11.27;3.03;;;19.90;86.80;;;;;;4825438;29;94592;-83
2023/06/26 06:05:05;;;;;;;11.65;3.50;;;19.90;84.50;;;;;;4824659;29;90172;-84
2023/06/26 06:07:32;;;;;;;10.52;3.88;;;20.00;85.50;;;;;;4808491;29;91257;-84
2023/06/26 06:09:58;;;;;;;13.13;3.80;;;20.00;86.80;;;;;;4809182;29;87613;-84
2023/06/26 06:12:23;;;;;;;11.63;4.50;;;19.90;86.80;;;;;;4808994;29;88951;-81
2023/06/26 06:14:49;;;;;;;15.05;4.00;;;19.90;86.20;;;;;;4824679;29;91350;-82
2023/06/26 06:17:15;;;;;;;18.95;4.38;;;19.90;84.90;;;;;;4823605;29;90291;-84
2023/06/26 06:19:40;;;;;;;16.88;3.88;;;19.90;84.60;;;;;;4823617;29;88577;-83
2023/06/26 06:22:06;;;;;;;11.70;3.40;;;19.90;85.10;;;;;;4824440;29;90280;-84
2023/06/26 06:24:31;;;;;;;10.73;2.97;;;19.90;85.60;;;;;;4807977;29;91972;-84
2023/06/26 06:26:57;;;;;;;17.33;3.35;;;20.00;85.30;;;;;;4824336;29;91208;-84
2023/06/26 06:29:22;;;;;;;12.93;3.13;;;20.00;85.20;;;;;;4823980;29;87791;-84
2023/06/26 06:31:48;;;;;;;12.43;3.88;;;20.10;83.50;;;;;;4809645;29;90077;-80
2023/06/26 06:34:14;;;;;;;8.70;2.70;;;20.10;80.50;;;;;;4826003;29;87553;-83
2023/06/26 06:36:39;;;;;;;14.48;2.90;;;20.00;80.90;;;;;;4824443;29;91094;-82
2023/06/26 06:39:05;;;;;;;16.65;3.03;;;20.00;81.40;;;;;;4824755;29;88351;-84
2023/06/26 06:41:31;;;;;;;11.10;2.90;;;20.00;81.30;;;;;;4823750;29;89216;-88
2023/06/26 06:43:56;;;;;;;11.50;2.55;;;20.10;81.50;;;;;;4824021;29;92398;-86
2023/06/26 06:46:22;;;;;;;10.77;3.10;;;20.10;80.20;;;;;;4808077;29;90320;-86
2023/06/26 06:48:48;;;;;;;17.92;2.70;;;20.20;79.70;;;;;;4824158;29;87778;-86
2023/06/26 06:51:13;;;;;;;13.13;3.25;;;20.20;79.80;;;;;;4808332;29;88939;-85
2023/06/26 06:53:39;;;;;;;12.20;2.60;;;20.30;79.60;;;;;;4823978;29;91602;-86
2023/06/26 06:56:04;;;;;;;12.23;2.88;;;20.40;78.30;;;;;;4824062;29;90096;-86
2023/06/26 06:58:33;;;;;;;7.70;2.53;;;20.40;78.40;;;;;;4824392;29;87775;-84
2023/06/26 07:00:59;;;;;;;9.43;2.70;;;20.50;77.50;;;;;;4826222;29;90378;-85
2023/06/26 07:03:25;;;;;;;14.85;3.40;;;20.50;77.40;;;;;;4809031;29;91186;-88
2023/06/26 07:05:51;;;;;;;14.57;2.55;;;20.50;77.50;;;;;;4825149;29;89486;-87
2023/06/26 07:08:16;;;;;;;13.00;2.70;;;20.50;76.70;;;;;;4823702;29;88431;-85
2023/06/26 07:10:42;;;;;;;11.70;3.10;;;20.50;77.10;;;;;;4822496;29;91462;-85
2023/06/26 07:13:08;;;;;;;8.88;2.40;;;20.60;77.60;;;;;;4822751;29;91022;-85
2023/06/26 07:15:33;;;;;;;7.05;2.17;;;20.70;76.30;;;;;;4822766;29;89917;-84
2023/06/26 07:17:59;;;;;;;8.48;2.20;;;20.80;76.30;;;;;;4824295;29;87530;-83
2023/06/26 07:20:24;;;;;;;12.02;2.45;;;20.90;75.70;;;;;;4823294;29;89001;-86
2023/06/26 07:22:50;;;;;;;9.15;2.30;;;21.00;74.20;;;;;;4822431;29;90395;-85
2023/06/26 07:25:15;;;;;;;12.35;2.45;;;21.00;73.40;;;;;;4823018;29;90181;-87
2023/06/26 07:27:42;;;;;;;7.45;2.15;;;21.10;73.60;;;;;;4822054;29;87815;-86
2023/06/26 07:30:11;;;;;;;12.57;2.65;;;21.10;73.00;;;;;;4825518;29;90761;-86
2023/06/26 07:32:37;;;;;;;11.77;2.30;;;21.20;72.80;;;;;;4823006;29;93134;-85
2023/06/26 07:35:03;;;;;;;15.25;2.38;;;21.20;73.00;;;;;;4807112;29;91692;-86
2023/06/26 07:37:29;;;;;;;11.93;2.65;;;21.20;74.20;;;;;;4809164;29;87898;-85
2023/06/26 07:39:55;;;;;;;12.25;2.42;;;21.20;73.40;;;;;;4823362;29;88617;-83
2023/06/26 07:42:20;;;;;;;6.28;2.10;;;21.30;73.40;;;;;;4822424;29;91593;-87
2023/06/26 07:44:46;;;;;;;10.07;2.38;;;21.40;70.90;;;;;;4824239;29;91127;-87
2023/06/26 07:47:12;;;;;;;6.40;1.83;;;21.40;71.50;;;;;;4823019;29;87171;-86
2023/06/26 07:49:38;;;;;;;8.82;2.40;;;21.50;70.70;;;;;;4823536;29;90473;-87
2023/06/26 07:52:05;;;;;;;10.18;2.35;;;21.50;70.90;;;;;;4822454;29;91609;-87
2023/06/26 07:54:30;;;;;;;10.25;1.85;;;21.60;71.40;;;;;;4822239;29;89963;-89
2023/06/26 07:56:57;;;;;;;9.18;2.38;;;21.60;70.90;;;;;;4822913;29;89469;-89
2023/06/26 07:59:24;;;;;;;8.30;2.22;;;21.70;70.60;;;;;;4807738;29;90310;-87
2023/06/26 08:01:51;;;;;;;6.38;2.10;;;21.70;71.00;;;;;;4822665;29;90523;-87
2023/06/26 08:04:22;;;;;;;11.57;2.42;;;21.80;70.30;;;;;;4822138;29;90817;-89
2023/06/26 08:06:52;;;;;;;9.35;2.55;;;21.90;70.00;;;;;;4807042;29;87629;-88
2023/06/26 08:09:19;;;;;;;12.05;2.55;;;21.90;70.50;;;;;;4807414;29;89997;-85
2023/06/26 08:11:45;;;;;;;9.45;2.42;;;21.90;70.80;;;;;;4807930;29;90247;-89
2023/06/26 08:14:13;;;;;;;12.52;2.50;;;22.00;70.40;;;;;;4822782;29;89821;-89
2023/06/26 08:16:40;;;;;;;8.07;2.28;;;22.10;70.50;;;;;;4807131;29;87502;-87
2023/06/26 08:19:05;;;;;;;9.95;2.25;;;22.30;70.30;;;;;;4822768;29;90265;-87
2023/06/26 08:21:31;;;;;;;6.05;2.40;;;22.30;70.00;;;;;;4807282;29;92523;-86
2023/06/26 08:23:57;;;;;;;9.85;2.38;;;22.30;69.20;;;;;;4807272;29;90559;-86
2023/06/26 08:26:23;;;;;;;12.95;2.40;;;22.40;69.50;;;;;;4824230;29;87782;-86
2023/06/26 08:28:49;;;;;;;6.28;1.88;;;22.50;69.40;;;;;;4822593;29;89426;-86
2023/06/26 08:31:14;;;;;;;11.73;2.47;;;22.60;70.10;;;;;;4822379;29;90744;-86
2023/06/26 08:33:40;;;;;;;9.57;2.47;;;22.70;67.80;;;;;;4822344;29;91086;-85
2023/06/26 08:36:06;;;;;;;8.95;2.92;;;22.60;68.60;;;;;;4823648;29;87759;-86
2023/06/26 08:38:32;;;;;;;11.50;2.50;;;22.70;68.20;;;;;;4822529;29;89725;-86
2023/06/26 08:40:58;;;;;;;11.35;2.55;;;22.80;68.80;;;;;;4822373;29;91157;-86
2023/06/26 08:43:24;;;;;;;12.98;2.17;;;22.90;67.80;;;;;;4807159;29;89874;-85
2023/06/26 08:45:51;;;;;;;10.98;2.72;;;23.00;68.00;;;;;;4806106;29;88747;-86
2023/06/26 08:48:17;;;;;;;13.82;2.50;;;23.10;67.80;;;;;;4805986;29;90127;-87
2023/06/26 08:50:44;;;;;;;18.42;3.15;;;23.30;66.80;;;;;;4823082;29;91016;-87
2023/06/26 08:53:18;;;;;;;13.25;2.40;;;23.30;66.20;;;;;;4821609;29;91504;-87
2023/06/26 08:55:44;;;;;;;9.18;2.08;;;23.30;66.40;;;;;;4807345;29;87928;-86
2023/06/26 08:58:12;;;;;;;8.25;1.75;;;23.40;65.50;;;;;;4821709;29;88844;-87
2023/06/26 09:00:38;;;;;;;8.07;1.92;;;23.50;65.90;;;;;;4821433;29;90461;-85
2023/06/26 09:03:04;;;;;;;6.90;2.00;;;23.40;65.20;;;;;;4807474;29;89503;-84
2023/06/26 09:05:33;;;;;;;12.60;2.45;;;23.40;66.60;;;;;;4822132;29;87729;-87
2023/06/26 09:07:59;;;;;;;8.32;2.38;;;23.50;66.30;;;;;;4822168;29;88825;-84
2023/06/26 09:10:25;;;;;;;6.03;1.98;;;23.70;66.30;;;;;;4820902;29;92155;-84
2023/06/26 09:12:50;;;;;;;8.02;1.80;;;23.70;62.60;;;;;;4821572;29;92152;-86
2023/06/26 09:15:20;;;;;;;6.82;1.90;;;23.60;63.60;;;;;;4806506;29;87756;-86
2023/06/26 09:17:46;;;;;;;10.40;1.50;;;23.70;63.90;;;;;;4822600;29;88973;-84
2023/06/26 09:20:14;;;;;;;8.07;1.80;;;23.70;62.00;;;;;;4822066;29;91091;-86
2023/06/26 09:22:41;;;;;;;8.95;2.05;;;23.80;62.10;;;;;;4821967;29;91171;-87
2023/06/26 09:25:08;;;;;;;6.50;1.63;;;23.80;59.70;;;;;;4821698;29;87234;-86
2023/06/26 09:27:35;;;;;;;12.40;1.73;;;23.70;61.60;;;;;;4822490;29;89897;-85
2023/06/26 09:30:03;;;;;;;6.07;1.45;;;23.80;62.00;;;;;;4822191;29;89619;-83
2023/06/26 09:32:29;;;;;;;7.72;1.75;;;23.80;60.80;;;;;;4821538;29;90462;-86
2023/06/26 09:35:00;;;;;;;7.60;1.55;;;23.80;59.00;;;;;;4807057;29;88428;-86
2023/06/26 09:37:26;;;;;;;11.30;1.90;;;23.90;60.60;;;;;;4809005;29;90505;-86
2023/06/26 09:39:52;;;;;;;4.00;1.30;;;24.10;58.50;;;;;;4809038;29;91647;-85
2023/06/26 09:42:19;;;;;;;15.18;2.65;;;24.10;58.20;;;;;;4825581;29;89844;-85
2023/06/26 09:44:45;;;;;;;14.18;2.38;;;24.00;58.40;;;;;;4810355;29;87809;-86
2023/06/26 09:47:11;;;;;;;14.48;1.60;;;24.00;58.20;;;;;;4809387;29;89286;-85
2023/06/26 09:49:40;;;;;;;7.07;1.33;;;24.10;58.80;;;;;;4809449;29;92573;-85
2023/06/26 09:52:07;;;;;;;4.32;0.93;;;24.20;56.90;;;;;;4824827;29;90924;-86
2023/06/26 09:54:33;;;;;;;3.53;0.95;;;24.30;56.00;;;;;;4826224;29;87147;-85
2023/06/26 09:57:08;;;;;;;4.85;1.08;;;24.40;57.50;;;;;;4825242;29;89590;-85
2023/06/26 09:59:35;;;;;;;3.60;0.93;;;24.40;55.80;;;;;;4823823;29;92052;-86
2023/06/26 10:02:01;;;;;;;10.90;1.45;;;24.30;55.70;;;;;;4808193;29;91093;-86
2023/06/26 10:04:26;;;;;;;10.77;1.58;;;24.30;53.90;;;;;;4808847;29;87673;-85
2023/06/26 10:06:57;;;;;;;4.15;1.00;;;24.20;54.40;;;;;;4824194;29;89325;-83
2023/06/26 10:09:24;;;;;;;3.70;1.10;;;24.30;56.80;;;;;;4823919;29;91619;-85
2023/06/26 10:11:56;;;;;;;6.65;1.10;;;24.30;56.20;;;;;;4824643;29;91263;-87
2023/06/26 10:14:26;;;;;;;12.40;1.07;;;24.30;55.70;;;;;;4809344;29;87718;-91
2023/06/26 10:16:52;;;;;;;10.60;1.70;;;24.40;54.70;;;;;;4824840;29;89925;-89
2023/06/26 10:19:24;;;;;;;5.88;1.08;;;24.40;54.00;;;;;;4825961;29;91328;-92
2023/06/26 10:21:53;;;;;;;7.93;1.00;;;24.40;54.10;;;;;;4809347;29;91489;-87
2023/06/26 10:24:20;;;;;;;3.03;0.98;;;24.60;54.10;;;;;;4824529;29;88490;-90
2023/06/26 10:26:50;;;;;;;7.63;1.10;;;24.90;56.20;;;;;;4810299;29;89204;-91
2023/06/26 10:29:17;;;;;;;3.47;0.93;;;25.00;54.00;;;;;;4825018;29;91305;-93
2023/06/26 10:31:47;;;;;;;8.05;1.50;;;25.10;54.50;;;;;;4825030;29;90128;-89
2023/06/26 10:34:13;;;;;;;8.60;1.00;;;25.30;52.30;;;;;;4809325;29;87569;-92
2023/06/26 10:36:39;;;;;;;7.10;1.67;;;25.30;53.80;;;;;;4825981;29;88765;-92
2023/06/26 10:39:06;;;;;;;5.47;1.10;;;25.40;53.90;;;;;;4827017;29;90420;-91
2023/06/26 10:41:42;;;;;;;4.70;1.05;;;25.50;53.70;;;;;;4828401;29;90124;-93
2023/06/26 10:44:12;;;;;;;6.72;1.15;;;25.40;50.70;;;;;;4825952;29;88010;-92
2023/06/26 10:46:58;;;;;;;4.30;1.00;;;25.40;50.80;;;;;;4808834;29;89404;-90
2023/06/26 10:49:32;;;;;;;2.83;0.70;;;25.50;49.90;;;;;;4808707;29;91465;-91
2023/06/26 10:52:01;;;;;;;9.20;1.20;;;25.60;50.30;;;;;;4824465;29;92158;-88
2023/06/26 10:54:31;;;;;;;4.97;0.90;;;25.50;48.60;;;;;;4809465;29;87949;-89
2023/06/26 10:56:59;;;;;;;4.18;1.10;;;25.50;49.60;;;;;;4826524;29;90145;-90
2023/06/26 10:59:26;;;;;;;4.07;0.75;;;25.60;49.00;;;;;;4824819;29;90476;-91
2023/06/26 11:02:01;;;;;;;2.58;0.82;;;25.60;49.40;;;;;;4809574;29;87548;-90
2023/06/26 11:04:59;;;;;;;1.88;0.63;;;25.60;49.00;;;;;;4823778;29;87539;-93
2023/06/26 11:07:26;;;;;;;4.55;0.95;;;25.50;48.40;;;;;;4801398;29;90551;-91
2023/06/26 11:10:10;;;;;;;6.82;0.90;;;25.50;49.90;;;;;;4808773;29;90412;-93
2023/06/26 11:12:42;;;;;;;8.73;1.02;;;25.70;49.30;;;;;;4823438;29;90361;-93
2023/06/26 11:15:13;;;;;;;4.53;0.73;;;25.70;49.20;;;;;;4824219;29;88386;-93
2023/06/26 11:17:39;;;;;;;5.40;1.00;;;25.90;50.50;;;;;;4808765;29;90744;-92
2023/06/26 11:20:07;;;;;;;4.35;1.08;;;26.00;50.30;;;;;;4808407;29;91586;-93
2023/06/26 11:22:35;;;;;;;3.60;1.00;;;26.10;47.70;;;;;;4812881;29;90296;-88
2023/06/26 11:25:03;;;;;;;5.45;1.10;;;25.90;48.10;;;;;;4833434;29;87170;-93
2023/06/26 11:27:44;;;;;;;6.15;1.08;;;25.70;48.30;;;;;;4818650;29;88916;-93
2023/06/26 11:30:23;;;;;;;4.78;0.95;;;25.50;47.70;;;;;;4832118;29;90440;-86
2023/06/26 11:32:49;;;;;;;3.15;0.98;;;25.30;48.50;;;;;;4836214;29;94455;-94
2023/06/26 11:35:30;;;;;;;5.30;1.15;;;25.30;49.00;;;;;;4829092;29;87493;-92
2023/06/26 11:38:04;;;;;;;5.45;1.20;;;25.30;49.80;;;;;;4824462;29;89485;-88
2023/06/26 11:40:31;;;;;;;5.07;1.00;;;25.10;49.00;;;;;;4810196;29;92890;-92
2023/06/26 11:43:01;;;;;;;2.33;0.80;;;25.10;48.60;;;;;;4807516;29;91613;-86
2023/06/26 11:45:31;;;;;;;7.60;0.77;;;24.90;48.40;;;;;;4823702;29;88079;-88
2023/06/26 11:47:58;;;;;;;7.30;1.23;;;24.80;48.50;;;;;;4808994;29;90296;-85
2023/06/26 11:50:24;;;;;;;8.57;1.73;;;24.70;50.70;;;;;;4807427;29;90648;-82
2023/06/26 11:52:57;;;;;;;5.80;0.98;;;24.80;50.40;;;;;;4808393;29;90789;-85
2023/06/26 11:55:23;;;;;;;2.97;0.83;;;24.90;49.20;;;;;;4824578;29;87832;-83
2023/06/26 11:57:58;;;;;;;6.25;1.23;;;24.90;48.00;;;;;;4822978;29;89161;-84
2023/06/26 12:00:24;;;;;;;3.72;0.93;;;24.90;47.70;;;;;;4823637;29;91173;-84
2023/06/26 12:02:51;;;;;;;3.78;1.20;;;24.90;48.00;;;;;;4825818;29;91166;-84
2023/06/26 12:05:17;;;;;;;5.90;1.60;;;25.10;46.00;;;;;;4807943;29;88556;-86
2023/06/26 12:07:45;;;;;;;10.63;1.48;;;25.30;47.70;;;;;;4808366;29;88391;-85
2023/06/26 12:10:11;;;;;;;3.63;0.98;;;25.40;47.40;;;;;;4820544;29;91843;-85
2023/06/26 12:12:38;;;;;;;6.40;0.95;;;25.50;48.80;;;;;;4807655;29;90960;-86
2023/06/26 12:15:06;;;;;;;5.18;0.85;;;25.60;47.80;;;;;;4806521;29;87910;-87
2023/06/26 12:17:32;;;;;;;5.60;1.45;;;25.50;44.40;;;;;;4803731;29;90880;-85
2023/06/26 12:19:58;;;;;;;3.65;0.82;;;25.60;45.30;;;;;;4819903;29;92200;-84
2023/06/26 12:22:23;;;;;;;6.38;1.40;;;25.80;46.40;;;;;;4820356;29;89137;-82
2023/06/26 12:24:49;;;;;;;6.93;1.02;;;25.90;45.20;;;;;;4820667;29;87780;-83
2023/06/26 12:27:17;;;;;;;3.40;0.82;;;26.20;46.20;;;;;;4821026;29;89177;-82
2023/06/26 12:29:52;;;;;;;3.05;0.85;;;26.50;47.40;;;;;;4806242;29;92473;-85
2023/06/26 12:32:17;;;;;;;2.70;0.90;;;26.70;45.10;;;;;;4806823;29;92657;-84
2023/06/26 12:34:48;;;;;;;2.85;0.68;;;26.70;44.50;;;;;;4822287;29;87333;-84
2023/06/26 12:37:14;;;;;;;3.63;0.70;;;26.70;43.60;;;;;;4807735;29;91093;-83
2023/06/26 12:39:49;;;;;;;7.75;1.08;;;26.70;43.20;;;;;;4822353;29;91319;-85
2023/06/26 12:42:17;;;;;;;8.48;1.48;;;26.70;43.30;;;;;;4807367;29;90718;-84